Weather observations for the past three days for
Minneapolis - Flying Cloud Airport
Imperial (Metric)
Date Time (cdt) Wind (mph) Vis. (mi.) Weather Sky Cond. Temperature (ºF) Relative Humidity Wind Chill (°F) Heat Index (°F) Pressure Precipitation (in)
Air Dwpt 6 hour altimeter (in) sea level (mb) 1 hr 3 hr 6 hr
Max. Min.
06 06:53 NW 3 10.00 Mostly Cloudy BKN055 35.1 24.1 37.9 30 64% 29.98 1015.9
06 05:53 NW 3 10.00 Mostly Cloudy BKN055 30.9 25 79% 29.98 1015.7
06 04:53 W 3 10.00 Fair CLR 32 24.1 73% 29.96 1015.3
06 03:53 NW 5 10.00 Fair CLR 33.1 23 66% 29 29.96 1015.2
06 02:53 NW 5 10.00 Fair CLR 35.1 21.9 59% 32 29.95 1014.9
06 01:53 NW 7 10.00 Fair CLR 36 21.9 57% 31 29.94 1014.5
06 00:53 N 7 10.00 Fair CLR 37 21.9 48.9 37 54% 32 29.94 1014.5
05 23:53 NW 10 10.00 Fair CLR 39 21.9 50% 33 29.92 1013.8
05 22:53 NW 8 10.00 Fair CLR 41 23 49% 36 29.92 1013.7
05 21:53 NW 9 10.00 Fair CLR 43 24.1 47% 38 29.9 1013.2
05 20:53 NW 10 G 21 10.00 Fair CLR 45 21.9 40% 40 29.87 1012.2
05 19:53 NW 12 G 25 10.00 A Few Clouds FEW075 46.9 21.9 37% 42 29.86 1011.6
05 18:53 W 15 G 25 10.00 Overcast FEW065 OVC080 48.9 21 51.1 46.9 33% 44 29.84 1011.0
05 17:53 W 18 G 25 9.00 Partly Cloudy SCT080 48.9 21 33% 43 29.84 1010.9
05 16:53 NW 12 G 22 8.00 Overcast BKN070 OVC080 48.9 23 36% 45 29.83 1010.8
05 15:53 NW 14 G 21 10.00 Overcast SCT065 OVC080 48.9 21.9 35% 44 29.84 1011.0
05 14:53 W 9 G 18 10.00 Overcast BKN060 OVC075 48.9 21.9 35% 45 29.84 1011.1
05 13:53 NW 14 G 24 10.00 Mostly Cloudy FEW060 BKN080 50 23 35% 45 29.85 1011.2
05 12:53 W 13 G 23 10.00 Mostly Cloudy BKN065 48.9 21.9 48.9 39 35% 44 29.85 1011.2
05 11:53 NW 10 G 20 10.00 Overcast OVC065 48 21.9 36% 44 29.85 1011.3
05 10:53 NW 13 G 20 9.00 Mostly Cloudy BKN060 45 21 39% 39 29.85 1011.5
05 09:53 NW 6 G 17 10.00 Fair CLR 43 21 42% 40 29.85 1011.2
05 08:53 N 10 G 17 10.00 Fair CLR 42.1 21 43% 37 29.83 1010.7
05 07:53 N 6 10.00 Fair CLR 39.9 19.9 45% 36 29.82 1010.3
05 06:53 NW 9 10.00 Fair CLR 39 23 44.1 37.9 53% 33 29.79 1009.4
05 05:53 N 12 10.00 Fair CLR 37.9 25 60% 31 29.77 1008.5
05 04:53 NW 9 10.00 Fair CLR 39 27 62% 33 29.76 1008.2
05 03:53 NW 12 10.00 Fair CLR 39.9 25 55% 34 29.75 1007.7
05 02:53 NW 9 10.00 Fair CLR 42.1 24.1 49% 37 29.73 1007.0
05 01:53 NW 10 10.00 Fair CLR 43 25 49% 38 29.73 1007.1
05 00:53 NW 8 10.00 Fair CLR 44.1 24.1 52 41 45% 40 29.73 1007.1
04 23:53 W 7 10.00 Fair CLR 42.1 27 55% 38 29.72 1006.7
04 22:53 W 5 10.00 Fair CLR 42.1 25 51% 40 29.72 1006.6
04 21:53 W 5 10.00 Fair CLR 44.1 25 47% 42 29.71 1006.4
04 20:53 W 7 10.00 Fair CLR 46.9 24.1 41% 44 29.69 1005.6
04 19:53 NW 16 G 26 9.00 Partly Cloudy SCT065 50 25 38% 45 29.66 1004.6
04 18:53 W 16 G 29 10.00 Partly Cloudy SCT065 52 24.1 61 52 34% 29.64 1003.7
04 17:53 NW 23 G 32 10.00 Mostly Cloudy and Breezy BKN065 54 27 35% 29.62 1003.1
04 16:53 NW 17 G 33 10.00 A Few Clouds FEW065 55.9 28 34% 29.58 1001.9
04 15:53 NW 14 G 35 10.00 Partly Cloudy SCT065 57.9 30 35% 29.56 1001.3
04 14:53 W 17 G 29 10.00 A Few Clouds FEW065 60.1 32 35% 29.55 1000.7
04 13:53 NW 18 G 32 10.00 Fair CLR 59 30.9 35% 29.53 1000.0
04 12:53 W 17 G 35 10.00 Fair CLR 59 28 62.1 57 31% 29.51 999.4
04 11:53 W 21 G 36 10.00 Fair and Breezy CLR 61 32 34% 29.49 998.8
04 10:53 W 17 G 28 10.00 Fair CLR 61 34 36% 29.49 998.5
04 09:53 NW 21 G 30 10.00 Fair and Breezy CLR 59 34 39% 29.48 998.4
04 08:53 NW 23 G 36 10.00 Fair and Breezy CLR 57.9 30.9 36% 29.47 997.7
04 07:53 W 8 10.00 Fair CLR 59 37 44% 29.44 996.8
04 06:53 W 17 G 29 10.00 Fair CLR 57 34 57 51.1 42% 29.42 996.2
04 05:53 SW 14 10.00 Mostly Cloudy BKN110 55 34 45% 29.41 995.6
04 04:53 SW 13 10.00 Fair CLR 54 34 47% 29.42 996.2
04 03:53 SW 10 10.00 Fair CLR 52 34 50% 29.45 997.0
04 02:53 SW 9 10.00 Fair CLR 51.1 33.1 50% 29.49 998.4
04 01:53 S 10 10.00 Fair CLR 53.1 33.1 47% 29.51 999.3
04 00:53 SW 7 10.00 Fair CLR 51.1 33.1 68 51.1 50% 29.55 1000.7
03 23:53 S 6 10.00 Fair CLR 52 33.1 49% 29.58 1001.7
03 22:53 Calm 10.00 Fair CLR 55.9 30.9 39% 29.62 1002.8
03 21:53 SW 5 10.00 Fair CLR 59 28.9 32% 29.63 1003.5
03 20:53 W 5 10.00 Fair CLR 63 28 27% 29.64 1003.6
03 19:53 W 7 10.00 Fair CLR 66 27 23% 29.65 1003.9
03 18:53 W 7 10.00 Fair CLR 66.9 26.1 70 66 21% 29.66 1004.3
03 17:53 W 13 G 17 10.00 Fair CLR 69.1 27 21% 29.67 1004.7
03 16:53 W 12 G 20 10.00 Fair CLR 69.1 28 22% 29.68 1004.9
03 15:53 N 10 G 16 8.00 Fair CLR 69.1 33.1 26% 29.69 1005.3
03 14:53 NW 10 G 23 6.00 Fair with Haze CLR 66.9 28.9 24% 29.71 1006.0
03 13:53 NW 13 G 22 10.00 Fair CLR 66.9 33.1 29% 29.71 1006.0
03 12:53 NW 14 G 24 10.00 Fair CLR 66 35.1 66.9 51.1 32% 29.73 1006.5
03 11:53 NW 15 G 22 10.00 Fair CLR 64.9 39 39% 29.73 1006.7
03 10:53 NW 16 G 22 10.00 Fair CLR 64 37 37% 29.72 1006.4
03 09:53 N 17 G 24 10.00 Fair CLR 61 37 41% 29.71 1006.1
03 08:53 N 15 G 23 10.00 Fair CLR 57.9 37 46% 29.7 1005.7
03 07:53 NW 8 10.00 Fair CLR 55 36 49% 29.69 1005.2
Date Time (cdt) Wind (mph) Vis. (mi.) Weather Sky Cond. Air Dwpt Max. Min. Relative Humidity Wind Chill (°F) Heat Index (°F) altimeter (in) sea level (mb) 1 hr 3 hr 6 hr
6 hour
Temperature (ºF) Pressure Precipitation (in)